sensor_id;sensor_type;location;lat;lon;timestamp;pressure;altitude;pressure_sealevel;temperature;humidity
76011;BME280;64701;43.536;1.478;2023-05-07T00:02:06;99680.25;;;17.39;93.51
76011;BME280;64701;43.536;1.478;2023-05-07T00:04:32;99672.88;;;17.34;94.26
76011;BME280;64701;43.536;1.478;2023-05-07T00:07:01;99676.13;;;17.25;95.08
76011;BME280;64701;43.536;1.478;2023-05-07T00:09:27;99670.56;;;17.26;94.83
76011;BME280;64701;43.536;1.478;2023-05-07T00:11:52;99680.91;;;17.23;95.18
76011;BME280;64701;43.536;1.478;2023-05-07T00:14:17;99674.50;;;17.24;94.67
76011;BME280;64701;43.536;1.478;2023-05-07T00:16:43;99681.00;;;17.16;95.60
76011;BME280;64701;43.536;1.478;2023-05-07T00:19:08;99679.41;;;17.15;95.77
76011;BME280;64701;43.536;1.478;2023-05-07T00:21:33;99683.81;;;17.21;94.95
76011;BME280;64701;43.536;1.478;2023-05-07T00:23:58;99676.03;;;17.20;94.90
76011;BME280;64701;43.536;1.478;2023-05-07T00:26:24;99678.69;;;17.20;94.98
76011;BME280;64701;43.536;1.478;2023-05-07T00:28:49;99675.91;;;17.26;93.57
76011;BME280;64701;43.536;1.478;2023-05-07T00:31:14;99677.56;;;17.27;93.48
76011;BME280;64701;43.536;1.478;2023-05-07T00:33:40;99676.03;;;17.31;92.87
76011;BME280;64701;43.536;1.478;2023-05-07T00:36:05;99666.47;;;17.35;91.96
76011;BME280;64701;43.536;1.478;2023-05-07T00:38:30;99675.00;;;17.32;92.85
76011;BME280;64701;43.536;1.478;2023-05-07T00:40:56;99675.69;;;17.39;91.50
76011;BME280;64701;43.536;1.478;2023-05-07T00:43:21;99676.97;;;17.37;92.38
76011;BME280;64701;43.536;1.478;2023-05-07T00:45:46;99671.72;;;17.30;92.88
76011;BME280;64701;43.536;1.478;2023-05-07T00:48:12;99672.19;;;17.27;93.33
76011;BME280;64701;43.536;1.478;2023-05-07T00:50:37;99669.75;;;17.26;93.58
76011;BME280;64701;43.536;1.478;2023-05-07T00:53:03;99681.16;;;17.21;94.07
76011;BME280;64701;43.536;1.478;2023-05-07T00:55:29;99676.59;;;17.10;94.66
76011;BME280;64701;43.536;1.478;2023-05-07T00:57:54;99674.84;;;17.04;95.54
76011;BME280;64701;43.536;1.478;2023-05-07T01:00:19;99677.38;;;17.10;94.66
76011;BME280;64701;43.536;1.478;2023-05-07T01:02:45;99681.94;;;17.10;94.35
76011;BME280;64701;43.536;1.478;2023-05-07T01:05:12;99685.66;;;17.09;94.84
76011;BME280;64701;43.536;1.478;2023-05-07T01:07:39;99685.06;;;17.07;95.09
76011;BME280;64701;43.536;1.478;2023-05-07T01:10:06;99684.94;;;17.02;95.81
76011;BME280;64701;43.536;1.478;2023-05-07T01:12:32;99684.13;;;17.01;95.84
76011;BME280;64701;43.536;1.478;2023-05-07T01:14:57;99682.28;;;17.02;94.78
76011;BME280;64701;43.536;1.478;2023-05-07T01:17:23;99687.03;;;17.00;95.07
76011;BME280;64701;43.536;1.478;2023-05-07T01:19:48;99682.28;;;17.02;95.03
76011;BME280;64701;43.536;1.478;2023-05-07T01:22:14;99692.38;;;17.00;94.97
76011;BME280;64701;43.536;1.478;2023-05-07T01:24:41;99693.56;;;17.04;94.04
76011;BME280;64701;43.536;1.478;2023-05-07T01:27:06;99686.59;;;17.03;93.90
76011;BME280;64701;43.536;1.478;2023-05-07T01:29:32;99683.22;;;17.07;93.48
76011;BME280;64701;43.536;1.478;2023-05-07T01:31:57;99683.44;;;17.06;92.70
76011;BME280;64701;43.536;1.478;2023-05-07T01:34:24;99684.25;;;17.06;92.42
76011;BME280;64701;43.536;1.478;2023-05-07T01:36:50;99686.59;;;17.03;93.03
76011;BME280;64701;43.536;1.478;2023-05-07T01:39:17;99685.97;;;17.01;93.56
76011;BME280;64701;43.536;1.478;2023-05-07T01:41:43;99690.38;;;16.95;93.50
76011;BME280;64701;43.536;1.478;2023-05-07T01:44:08;99693.28;;;16.94;93.73
76011;BME280;64701;43.536;1.478;2023-05-07T01:46:35;99690.16;;;16.97;93.01
76011;BME280;64701;43.536;1.478;2023-05-07T01:49:01;99694.09;;;16.94;92.74
76011;BME280;64701;43.536;1.478;2023-05-07T01:51:26;99693.28;;;16.94;92.86
76011;BME280;64701;43.536;1.478;2023-05-07T01:53:52;99694.78;;;16.90;93.30
76011;BME280;64701;43.536;1.478;2023-05-07T01:56:18;99692.13;;;16.90;91.96
76011;BME280;64701;43.536;1.478;2023-05-07T01:58:44;99698.38;;;16.84;92.42
76011;BME280;64701;43.536;1.478;2023-05-07T02:01:10;99695.72;;;16.84;92.10
76011;BME280;64701;43.536;1.478;2023-05-07T02:03:35;99691.41;;;16.83;91.90
76011;BME280;64701;43.536;1.478;2023-05-07T02:06:01;99691.88;;;16.80;92.03
76011;BME280;64701;43.536;1.478;2023-05-07T02:08:26;99686.53;;;16.80;92.05
76011;BME280;64701;43.536;1.478;2023-05-07T02:10:51;99685.09;;;16.77;91.88
76011;BME280;64701;43.536;1.478;2023-05-07T02:13:18;99685.31;;;16.76;92.30
76011;BME280;64701;43.536;1.478;2023-05-07T02:15:44;99680.88;;;16.69;92.49
76011;BME280;64701;43.536;1.478;2023-05-07T02:18:14;99680.06;;;16.69;91.83
76011;BME280;64701;43.536;1.478;2023-05-07T02:20:39;99672.63;;;16.71;91.70
76011;BME280;64701;43.536;1.478;2023-05-07T02:23:04;99674.38;;;16.65;92.28
76011;BME280;64701;43.536;1.478;2023-05-07T02:25:30;99673.59;;;16.58;93.32
76011;BME280;64701;43.536;1.478;2023-05-07T02:27:55;99669.47;;;16.62;92.13
76011;BME280;64701;43.536;1.478;2023-05-07T02:30:20;99672.72;;;16.64;91.85
76011;BME280;64701;43.536;1.478;2023-05-07T02:32:46;99664.50;;;16.66;91.47
76011;BME280;64701;43.536;1.478;2023-05-07T02:35:11;99668.13;;;16.71;90.45
76011;BME280;64701;43.536;1.478;2023-05-07T02:37:36;99663.09;;;16.75;90.64
76011;BME280;64701;43.536;1.478;2023-05-07T02:40:02;99649.19;;;16.73;91.07
76011;BME280;64701;43.536;1.478;2023-05-07T02:42:28;99640.13;;;16.74;91.01
76011;BME280;64701;43.536;1.478;2023-05-07T02:44:53;99643.44;;;16.69;91.95
76011;BME280;64701;43.536;1.478;2023-05-07T02:47:19;99649.19;;;16.73;90.66
76011;BME280;64701;43.536;1.478;2023-05-07T02:49:44;99655.44;;;16.67;91.97
76011;BME280;64701;43.536;1.478;2023-05-07T02:52:10;99647.16;;;16.68;90.97
76011;BME280;64701;43.536;1.478;2023-05-07T02:54:35;99644.06;;;16.71;90.25
76011;BME280;64701;43.536;1.478;2023-05-07T02:57:00;99644.66;;;16.73;90.21
76011;BME280;64701;43.536;1.478;2023-05-07T02:59:27;99653.69;;;16.72;90.45
76011;BME280;64701;43.536;1.478;2023-05-07T03:01:52;99664.03;;;16.69;91.22
76011;BME280;64701;43.536;1.478;2023-05-07T03:04:17;99664.03;;;16.69;90.16
76011;BME280;64701;43.536;1.478;2023-05-07T03:06:43;99664.41;;;16.72;90.10
76011;BME280;64701;43.536;1.478;2023-05-07T03:09:08;99663.72;;;16.59;91.77
76011;BME280;64701;43.536;1.478;2023-05-07T03:11:33;99666.72;;;16.51;92.01
76011;BME280;64701;43.536;1.478;2023-05-07T03:14:00;99666.63;;;16.57;90.69
76011;BME280;64701;43.536;1.478;2023-05-07T03:16:25;99671.56;;;16.60;90.18
76011;BME280;64701;43.536;1.478;2023-05-07T03:18:51;99681.84;;;16.57;90.64
76011;BME280;64701;43.536;1.478;2023-05-07T03:21:16;99685.59;;;16.56;90.62
76011;BME280;64701;43.536;1.478;2023-05-07T03:23:41;99692.06;;;16.48;91.37
76011;BME280;64701;43.536;1.478;2023-05-07T03:26:06;99697.00;;;16.45;91.96
76011;BME280;64701;43.536;1.478;2023-05-07T03:28:32;99694.06;;;16.34;92.55
76011;BME280;64701;43.536;1.478;2023-05-07T03:30:57;99711.38;;;16.32;93.34
76011;BME280;64701;43.536;1.478;2023-05-07T03:33:22;99710.09;;;16.34;92.79
76011;BME280;64701;43.536;1.478;2023-05-07T03:35:47;99711.38;;;16.32;93.76
76011;BME280;64701;43.536;1.478;2023-05-07T03:38:13;99706.41;;;16.36;93.00
76011;BME280;64701;43.536;1.478;2023-05-07T03:40:38;99701.41;;;16.39;92.41
76011;BME280;64701;43.536;1.478;2023-05-07T03:43:03;99699.34;;;16.41;92.27
76011;BME280;64701;43.536;1.478;2023-05-07T03:45:29;99700.50;;;16.45;91.95
76011;BME280;64701;43.536;1.478;2023-05-07T03:47:54;99697.25;;;16.43;92.19
76011;BME280;64701;43.536;1.478;2023-05-07T03:50:20;99701.09;;;16.47;91.33
76011;BME280;64701;43.536;1.478;2023-05-07T03:52:45;99702.75;;;16.48;91.52
76011;BME280;64701;43.536;1.478;2023-05-07T03:55:11;99693.56;;;16.44;91.94
76011;BME280;64701;43.536;1.478;2023-05-07T03:57:36;99710.38;;;16.45;91.91
76011;BME280;64701;43.536;1.478;2023-05-07T04:00:01;99707.94;;;16.43;92.25
76011;BME280;64701;43.536;1.478;2023-05-07T04:02:28;99702.22;;;16.40;92.52
76011;BME280;64701;43.536;1.478;2023-05-07T04:04:53;99710.63;;;16.43;92.12
76011;BME280;64701;43.536;1.478;2023-05-07T04:07:19;99716.88;;;16.37;92.60
76011;BME280;64701;43.536;1.478;2023-05-07T04:09:44;99715.84;;;16.38;92.12
76011;BME280;64701;43.536;1.478;2023-05-07T04:12:10;99720.13;;;16.39;92.12
76011;BME280;64701;43.536;1.478;2023-05-07T04:14:35;99717.97;;;16.29;93.36
76011;BME280;64701;43.536;1.478;2023-05-07T04:17:00;99727.41;;;16.32;92.73
76011;BME280;64701;43.536;1.478;2023-05-07T04:19:25;99714.69;;;16.27;92.92
76011;BME280;64701;43.536;1.478;2023-05-07T04:21:51;99724.97;;;16.30;92.61
76011;BME280;64701;43.536;1.478;2023-05-07T04:24:16;99719.41;;;16.32;92.19
76011;BME280;64701;43.536;1.478;2023-05-07T04:26:41;99724.81;;;16.25;93.05
76011;BME280;64701;43.536;1.478;2023-05-07T04:29:07;99724.81;;;16.25;92.58
76011;BME280;64701;43.536;1.478;2023-05-07T04:31:32;99723.41;;;16.23;93.01
76011;BME280;64701;43.536;1.478;2023-05-07T04:33:57;99720.50;;;16.24;92.34
76011;BME280;64701;43.536;1.478;2023-05-07T04:36:23;99725.03;;;16.24;92.69
76011;BME280;64701;43.536;1.478;2023-05-07T04:38:52;99727.84;;;16.29;92.08
76011;BME280;64701;43.536;1.478;2023-05-07T04:41:17;99736.00;;;16.34;91.83
76011;BME280;64701;43.536;1.478;2023-05-07T04:43:43;99743.44;;;16.32;92.25
76011;BME280;64701;43.536;1.478;2023-05-07T04:46:08;99749.38;;;16.34;91.20
76011;BME280;64701;43.536;1.478;2023-05-07T04:48:33;99743.81;;;16.36;91.22
76011;BME280;64701;43.536;1.478;2023-05-07T04:50:58;99741.13;;;16.36;90.86
76011;BME280;64701;43.536;1.478;2023-05-07T04:53:24;99746.78;;;16.27;90.43
76011;BME280;64701;43.536;1.478;2023-05-07T04:55:54;99750.03;;;16.29;90.41
76011;BME280;64701;43.536;1.478;2023-05-07T04:58:20;99758.72;;;16.25;90.66
76011;BME280;64701;43.536;1.478;2023-05-07T05:00:45;99754.56;;;16.29;90.13
76011;BME280;64701;43.536;1.478;2023-05-07T05:03:11;99760.38;;;16.26;89.76
76011;BME280;64701;43.536;1.478;2023-05-07T05:05:36;99759.91;;;16.29;89.73
76011;BME280;64701;43.536;1.478;2023-05-07T05:08:02;99762.88;;;16.21;90.20
76011;BME280;64701;43.536;1.478;2023-05-07T05:10:27;99770.53;;;16.17;90.55
76011;BME280;64701;43.536;1.478;2023-05-07T05:12:52;99771.34;;;16.18;90.58
76011;BME280;64701;43.536;1.478;2023-05-07T05:15:18;99781.00;;;16.19;90.45
76011;BME280;64701;43.536;1.478;2023-05-07T05:17:43;99780.03;;;16.13;90.19
76011;BME280;64701;43.536;1.478;2023-05-07T05:20:09;99783.34;;;16.09;90.74
76011;BME280;64701;43.536;1.478;2023-05-07T05:22:37;99780.66;;;16.09;90.50
76011;BME280;64701;43.536;1.478;2023-05-07T05:25:02;99771.19;;;16.13;90.31
76011;BME280;64701;43.536;1.478;2023-05-07T05:27:28;99780.38;;;16.17;90.44
76011;BME280;64701;43.536;1.478;2023-05-07T05:29:54;99786.56;;;16.17;90.74
76011;BME280;64701;43.536;1.478;2023-05-07T05:32:19;99783.00;;;16.23;90.24
76011;BME280;64701;43.536;1.478;2023-05-07T05:34:45;99785.88;;;16.22;90.47
76011;BME280;64701;43.536;1.478;2023-05-07T05:37:10;99787.91;;;16.26;89.99
76011;BME280;64701;43.536;1.478;2023-05-07T05:39:36;99798.06;;;16.18;90.49
76011;BME280;64701;43.536;1.478;2023-05-07T05:42:01;99806.06;;;16.18;90.69
76011;BME280;64701;43.536;1.478;2023-05-07T05:44:27;99809.34;;;16.20;90.51
76011;BME280;64701;43.536;1.478;2023-05-07T05:46:52;99814.91;;;16.18;90.92
76011;BME280;64701;43.536;1.478;2023-05-07T05:49:20;99815.56;;;16.14;91.80
76011;BME280;64701;43.536;1.478;2023-05-07T05:51:45;99822.72;;;16.20;91.43
76011;BME280;64701;43.536;1.478;2023-05-07T05:54:10;99815.72;;;16.19;91.73
76011;BME280;64701;43.536;1.478;2023-05-07T05:56:36;99819.59;;;16.23;91.06
76011;BME280;64701;43.536;1.478;2023-05-07T05:59:01;99830.47;;;16.21;91.55
76011;BME280;64701;43.536;1.478;2023-05-07T06:01:27;99834.78;;;16.22;91.48
76011;BME280;64701;43.536;1.478;2023-05-07T06:03:52;99836.78;;;16.27;90.46
76011;BME280;64701;43.536;1.478;2023-05-07T06:06:17;99838.59;;;16.33;90.57
76011;BME280;64701;43.536;1.478;2023-05-07T06:08:43;99843.94;;;16.33;90.35
76011;BME280;64701;43.536;1.478;2023-05-07T06:11:08;99841.72;;;16.30;90.83
76011;BME280;64701;43.536;1.478;2023-05-07T06:13:33;99842.16;;;16.27;91.08
76011;BME280;64701;43.536;1.478;2023-05-07T06:15:58;99844.59;;;16.28;90.78
76011;BME280;64701;43.536;1.478;2023-05-07T06:18:24;99843.22;;;16.26;91.06
76011;BME280;64701;43.536;1.478;2023-05-07T06:20:50;99844.38;;;16.30;90.42
76011;BME280;64701;43.536;1.478;2023-05-07T06:23:15;99842.53;;;16.30;90.56
76011;BME280;64701;43.536;1.478;2023-05-07T06:25:40;99843.50;;;16.36;89.62
76011;BME280;64701;43.536;1.478;2023-05-07T06:28:05;99845.81;;;16.32;90.71
76011;BME280;64701;43.536;1.478;2023-05-07T06:30:31;99844.91;;;16.39;89.73
76011;BME280;64701;43.536;1.478;2023-05-07T06:32:56;99842.22;;;16.39;90.09
76011;BME280;64701;43.536;1.478;2023-05-07T06:35:21;99842.91;;;16.34;90.30
76011;BME280;64701;43.536;1.478;2023-05-07T06:37:47;99849.94;;;16.28;91.06
76011;BME280;64701;43.536;1.478;2023-05-07T06:40:12;99853.44;;;16.29;90.58
76011;BME280;64701;43.536;1.478;2023-05-07T06:42:37;99861.03;;;16.32;90.63
76011;BME280;64701;43.536;1.478;2023-05-07T06:45:03;99860.94;;;16.39;90.14
76011;BME280;64701;43.536;1.478;2023-05-07T06:47:28;99858.72;;;16.36;89.82
76011;BME280;64701;43.536;1.478;2023-05-07T06:49:53;99868.75;;;16.40;89.86
76011;BME280;64701;43.536;1.478;2023-05-07T06:52:19;99864.63;;;16.44;89.31
76011;BME280;64701;43.536;1.478;2023-05-07T06:54:44;99866.63;;;16.49;89.00
76011;BME280;64701;43.536;1.478;2023-05-07T06:57:09;99867.44;;;16.49;88.72
76011;BME280;64701;43.536;1.478;2023-05-07T06:59:35;99868.00;;;16.51;88.75
76011;BME280;64701;43.536;1.478;2023-05-07T07:02:00;99861.19;;;16.55;88.95
76011;BME280;64701;43.536;1.478;2023-05-07T07:04:25;99864.63;;;16.62;88.38
76011;BME280;64701;43.536;1.478;2023-05-07T07:06:54;99868.50;;;16.66;88.47
76011;BME280;64701;43.536;1.478;2023-05-07T07:09:19;99874.00;;;16.71;88.48
76011;BME280;64701;43.536;1.478;2023-05-07T07:11:45;99869.63;;;16.77;88.49
76011;BME280;64701;43.536;1.478;2023-05-07T07:14:10;99871.47;;;16.77;88.65
76011;BME280;64701;43.536;1.478;2023-05-07T07:16:35;99876.00;;;16.76;88.68
76011;BME280;64701;43.536;1.478;2023-05-07T07:19:00;99878.25;;;16.79;87.79
76011;BME280;64701;43.536;1.478;2023-05-07T07:21:26;99885.13;;;16.87;87.88
76011;BME280;64701;43.536;1.478;2023-05-07T07:23:51;99883.41;;;16.92;88.34
76011;BME280;64701;43.536;1.478;2023-05-07T07:26:17;99885.31;;;16.92;89.09
76011;BME280;64701;43.536;1.478;2023-05-07T07:28:45;99881.88;;;16.85;88.05
76011;BME280;64701;43.536;1.478;2023-05-07T07:31:11;99881.81;;;16.91;87.93
76011;BME280;64701;43.536;1.478;2023-05-07T07:43:49;99891.22;;;17.12;86.52
76011;BME280;64701;43.536;1.478;2023-05-07T07:46:14;99890.19;;;17.13;86.91
76011;BME280;64701;43.536;1.478;2023-05-07T07:48:40;99888.09;;;17.15;86.98
76011;BME280;64701;43.536;1.478;2023-05-07T07:51:05;99885.44;;;17.15;87.33
76011;BME280;64701;43.536;1.478;2023-05-07T07:53:30;99896.28;;;17.20;86.01
76011;BME280;64701;43.536;1.478;2023-05-07T07:55:56;99895.38;;;17.26;85.74
76011;BME280;64701;43.536;1.478;2023-05-07T07:58:21;99894.91;;;17.29;85.39
76011;BME280;64701;43.536;1.478;2023-05-07T08:00:47;99898.78;;;17.33;85.16
76011;BME280;64701;43.536;1.478;2023-05-07T08:03:12;99903.66;;;17.36;85.94
76011;BME280;64701;43.536;1.478;2023-05-07T08:05:38;99905.38;;;17.31;84.57
76011;BME280;64701;43.536;1.478;2023-05-07T08:08:03;99907.63;;;17.34;84.67
76011;BME280;64701;43.536;1.478;2023-05-07T08:10:29;99910.88;;;17.36;84.41
76011;BME280;64701;43.536;1.478;2023-05-07T08:12:54;99907.91;;;17.44;84.36
76011;BME280;64701;43.536;1.478;2023-05-07T08:15:19;99915.72;;;17.45;85.45
76011;BME280;64701;43.536;1.478;2023-05-07T08:17:45;99908.38;;;17.52;84.83
76011;BME280;64701;43.536;1.478;2023-05-07T08:20:10;99911.84;;;17.41;83.46
76011;BME280;64701;43.536;1.478;2023-05-07T08:22:35;99912.44;;;17.43;83.69
76011;BME280;64701;43.536;1.478;2023-05-07T08:25:01;99916.63;;;17.39;82.24
76011;BME280;64701;43.536;1.478;2023-05-07T08:27:26;99921.50;;;17.42;82.79
76011;BME280;64701;43.536;1.478;2023-05-07T08:29:52;99926.84;;;17.42;82.97
76011;BME280;64701;43.536;1.478;2023-05-07T08:32:18;99927.31;;;17.39;83.56
76011;BME280;64701;43.536;1.478;2023-05-07T08:34:43;99923.44;;;17.35;83.09
76011;BME280;64701;43.536;1.478;2023-05-07T08:37:08;99918.69;;;17.37;83.41
76011;BME280;64701;43.536;1.478;2023-05-07T08:39:34;99924.88;;;17.38;82.92
76011;BME280;64701;43.536;1.478;2023-05-07T08:42:00;99924.41;;;17.41;83.44
76011;BME280;64701;43.536;1.478;2023-05-07T08:44:26;99935.03;;;17.47;83.18
76011;BME280;64701;43.536;1.478;2023-05-07T08:46:53;99923.75;;;17.45;82.60
76011;BME280;64701;43.536;1.478;2023-05-07T08:49:19;99921.06;;;17.45;82.43
76011;BME280;64701;43.536;1.478;2023-05-07T08:51:45;99929.22;;;17.50;82.08
76011;BME280;64701;43.536;1.478;2023-05-07T08:54:10;99930.88;;;17.51;82.08
76011;BME280;64701;43.536;1.478;2023-05-07T08:56:36;99933.22;;;17.60;81.43
76011;BME280;64701;43.536;1.478;2023-05-07T08:59:01;99936.75;;;17.60;82.32
76011;BME280;64701;43.536;1.478;2023-05-07T09:01:26;99943.34;;;17.58;81.96
76011;BME280;64701;43.536;1.478;2023-05-07T09:03:52;99930.69;;;17.65;81.34
76011;BME280;64701;43.536;1.478;2023-05-07T09:06:18;99933.03;;;17.61;81.84
76011;BME280;64701;43.536;1.478;2023-05-07T09:08:50;99932.72;;;17.69;81.56
76011;BME280;64701;43.536;1.478;2023-05-07T09:11:16;99936.34;;;17.75;81.71
76011;BME280;64701;43.536;1.478;2023-05-07T09:13:44;99936.56;;;17.73;81.81
76011;BME280;64701;43.536;1.478;2023-05-07T09:16:10;99937.28;;;17.80;82.04
76011;BME280;64701;43.536;1.478;2023-05-07T09:18:40;99930.06;;;17.81;80.96
76011;BME280;64701;43.536;1.478;2023-05-07T09:21:05;99934.88;;;17.90;81.11
76011;BME280;64701;43.536;1.478;2023-05-07T09:23:34;99939.66;;;18.00;81.66
76011;BME280;64701;43.536;1.478;2023-05-07T09:26:00;99936.75;;;18.02;81.33
76011;BME280;64701;43.536;1.478;2023-05-07T09:28:25;99937.56;;;18.02;79.86
76011;BME280;64701;43.536;1.478;2023-05-07T09:30:50;99939.66;;;18.00;79.45
76011;BME280;64701;43.536;1.478;2023-05-07T09:33:16;99937.78;;;18.01;79.57
76011;BME280;64701;43.536;1.478;2023-05-07T09:35:42;99933.84;;;18.03;79.83
76011;BME280;64701;43.536;1.478;2023-05-07T09:38:07;99941.19;;;18.08;79.75
76011;BME280;64701;43.536;1.478;2023-05-07T09:40:32;99933.25;;;18.01;79.01
76011;BME280;64701;43.536;1.478;2023-05-07T09:43:08;99935.00;;;18.07;79.87
76011;BME280;64701;43.536;1.478;2023-05-07T09:45:33;99931.63;;;18.12;79.72
76011;BME280;64701;43.536;1.478;2023-05-07T09:47:59;99939.00;;;18.16;79.38
76011;BME280;64701;43.536;1.478;2023-05-07T09:50:29;99937.28;;;18.22;78.84
76011;BME280;64701;43.536;1.478;2023-05-07T09:52:55;99942.41;;;18.35;79.64
76011;BME280;64701;43.536;1.478;2023-05-07T09:55:21;99937.63;;;18.49;79.02
76011;BME280;64701;43.536;1.478;2023-05-07T09:57:47;99939.53;;;18.60;79.76
76011;BME280;64701;43.536;1.478;2023-05-07T10:00:13;99938.13;;;18.69;78.17
76011;BME280;64701;43.536;1.478;2023-05-07T10:02:40;99938.34;;;18.79;78.04
76011;BME280;64701;43.536;1.478;2023-05-07T10:05:12;99935.56;;;18.86;76.75
76011;BME280;64701;43.536;1.478;2023-05-07T10:07:37;99937.78;;;18.89;76.20
76011;BME280;64701;43.536;1.478;2023-05-07T10:10:03;99938.41;;;19.07;75.95
76011;BME280;64701;43.536;1.478;2023-05-07T10:12:29;99931.53;;;19.11;74.93
76011;BME280;64701;43.536;1.478;2023-05-07T10:14:55;99937.97;;;19.10;74.10
76011;BME280;64701;43.536;1.478;2023-05-07T10:17:21;99941.09;;;19.07;75.22
76011;BME280;64701;43.536;1.478;2023-05-07T10:19:48;99938.31;;;19.02;73.85
76011;BME280;64701;43.536;1.478;2023-05-07T10:22:14;99947.69;;;19.00;74.64
76011;BME280;64701;43.536;1.478;2023-05-07T10:24:41;99952.78;;;19.01;75.43
76011;BME280;64701;43.536;1.478;2023-05-07T10:27:10;99951.88;;;18.96;75.40
76011;BME280;64701;43.536;1.478;2023-05-07T10:29:42;99945.22;;;18.98;74.96
76011;BME280;64701;43.536;1.478;2023-05-07T10:34:54;99950.22;;;19.06;77.06
76011;BME280;64701;43.536;1.478;2023-05-07T10:37:21;99955.47;;;19.01;76.37
76011;BME280;64701;43.536;1.478;2023-05-07T10:39:46;99962.25;;;18.92;75.55
76011;BME280;64701;43.536;1.478;2023-05-07T10:42:13;99953.19;;;18.82;75.46
76011;BME280;64701;43.536;1.478;2023-05-07T10:44:38;99960.53;;;18.74;75.36
76011;BME280;64701;43.536;1.478;2023-05-07T10:47:05;99955.38;;;18.73;76.26
76011;BME280;64701;43.536;1.478;2023-05-07T10:49:31;99959.22;;;18.65;77.00
76011;BME280;64701;43.536;1.478;2023-05-07T10:54:41;99962.94;;;18.53;76.24
76011;BME280;64701;43.536;1.478;2023-05-07T10:57:40;99960.97;;;18.60;77.17
76011;BME280;64701;43.536;1.478;2023-05-07T11:00:00;99961.56;;;18.62;76.83
76011;BME280;64701;43.536;1.478;2023-05-07T11:05:27;99962.50;;;18.56;76.01
76011;BME280;64701;43.536;1.478;2023-05-07T11:07:55;99962.38;;;18.74;76.33
76011;BME280;64701;43.536;1.478;2023-05-07T11:10:21;99958.19;;;18.78;74.05
76011;BME280;64701;43.536;1.478;2023-05-07T11:12:50;99957.25;;;18.84;74.05
76011;BME280;64701;43.536;1.478;2023-05-07T11:15:16;99952.09;;;19.06;74.49
76011;BME280;64701;43.536;1.478;2023-05-07T11:17:58;99939.94;;;19.43;74.18
76011;BME280;64701;43.536;1.478;2023-05-07T11:23:08;99936.94;;;19.96;70.34
76011;BME280;64701;43.536;1.478;2023-05-07T11:25:33;99934.03;;;20.15;69.68
76011;BME280;64701;43.536;1.478;2023-05-07T11:28:04;99928.56;;;20.26;68.71
76011;BME280;64701;43.536;1.478;2023-05-07T11:30:30;99935.78;;;20.38;67.23
76011;BME280;64701;43.536;1.478;2023-05-07T11:32:55;99935.78;;;20.54;66.68
76011;BME280;64701;43.536;1.478;2023-05-07T11:35:22;99930.28;;;20.66;64.61
76011;BME280;64701;43.536;1.478;2023-05-07T11:37:47;99929.66;;;20.81;65.46
76011;BME280;64701;43.536;1.478;2023-05-07T11:40:13;99925.56;;;20.95;64.94
76011;BME280;64701;43.536;1.478;2023-05-07T11:42:39;99922.09;;;21.16;65.13
76011;BME280;64701;43.536;1.478;2023-05-07T11:45:05;99915.50;;;21.29;62.92
76011;BME280;64701;43.536;1.478;2023-05-07T11:47:31;99914.34;;;21.46;63.87
76011;BME280;64701;43.536;1.478;2023-05-07T11:49:57;99913.25;;;21.69;65.49
76011;BME280;64701;43.536;1.478;2023-05-07T11:52:27;99911.00;;;21.88;64.37
76011;BME280;64701;43.536;1.478;2023-05-07T11:54:56;99900.19;;;22.10;62.47
76011;BME280;64701;43.536;1.478;2023-05-07T11:57:22;99906.72;;;22.19;62.41
76011;BME280;64701;43.536;1.478;2023-05-07T11:59:47;99904.34;;;22.22;63.94
76011;BME280;64701;43.536;1.478;2023-05-07T12:02:17;99901.44;;;22.34;61.06
76011;BME280;64701;43.536;1.478;2023-05-07T12:04:42;99900.16;;;22.47;62.35
76011;BME280;64701;43.536;1.478;2023-05-07T12:07:13;99900.25;;;22.62;61.13
76011;BME280;64701;43.536;1.478;2023-05-07T12:09:39;99895.44;;;22.64;62.43
76011;BME280;64701;43.536;1.478;2023-05-07T12:12:05;99888.16;;;22.69;60.90
76011;BME280;64701;43.536;1.478;2023-05-07T12:14:30;99888.50;;;22.78;60.87
76011;BME280;64701;43.536;1.478;2023-05-07T12:16:56;99885.59;;;22.95;61.43
76011;BME280;64701;43.536;1.478;2023-05-07T12:19:22;99885.91;;;22.98;60.11
76011;BME280;64701;43.536;1.478;2023-05-07T12:21:47;99884.88;;;23.09;59.07
76011;BME280;64701;43.536;1.478;2023-05-07T12:24:14;99879.22;;;23.16;58.55
76011;BME280;64701;43.536;1.478;2023-05-07T12:26:39;99875.47;;;23.27;60.25
76011;BME280;64701;43.536;1.478;2023-05-07T12:29:07;99874.16;;;23.40;57.64
76011;BME280;64701;43.536;1.478;2023-05-07T12:31:33;99878.16;;;23.27;57.32
76011;BME280;64701;43.536;1.478;2023-05-07T12:33:58;99874.97;;;23.35;56.99
76011;BME280;64701;43.536;1.478;2023-05-07T12:36:23;99875.78;;;23.46;60.50
76011;BME280;64701;43.536;1.478;2023-05-07T12:38:49;99873.69;;;23.53;59.90
76011;BME280;64701;43.536;1.478;2023-05-07T12:41:15;99876.91;;;23.60;58.61
76011;BME280;64701;43.536;1.478;2023-05-07T12:43:41;99869.09;;;23.58;54.94
76011;BME280;64701;43.536;1.478;2023-05-07T12:46:08;99868.53;;;23.46;57.00
76011;BME280;64701;43.536;1.478;2023-05-07T12:48:36;99879.63;;;23.70;59.67
76011;BME280;64701;43.536;1.478;2023-05-07T12:51:01;99869.09;;;23.69;57.18
76011;BME280;64701;43.536;1.478;2023-05-07T12:53:28;99860.69;;;23.60;55.25
76011;BME280;64701;43.536;1.478;2023-05-07T12:55:54;99873.16;;;23.71;54.54
76011;BME280;64701;43.536;1.478;2023-05-07T12:58:20;99869.59;;;23.66;54.11
76011;BME280;64701;43.536;1.478;2023-05-07T13:00:49;99868.81;;;23.70;54.74
76011;BME280;64701;43.536;1.478;2023-05-07T13:03:21;99862.88;;;24.04;56.12
76011;BME280;64701;43.536;1.478;2023-05-07T13:05:48;99873.41;;;24.40;57.73
76011;BME280;64701;43.536;1.478;2023-05-07T13:08:22;99879.09;;;24.54;54.79
76011;BME280;64701;43.536;1.478;2023-05-07T13:10:48;99870.34;;;24.77;55.39
76011;BME280;64701;43.536;1.478;2023-05-07T13:13:13;99873.53;;;25.00;53.67
76011;BME280;64701;43.536;1.478;2023-05-07T13:15:38;99876.28;;;24.95;53.88